Time;durP1;ratioP1;P1;durP2;ratioP2;P2;SDS_P1;SDS_P2;PMS_P1;PMS_P2;Temp;Humidity;BMP_temperature;BMP_pressure;BME280_temperature;BME280_humidity;BME280_pressure;Samples;Min_cycle;Max_cycle;Signal;HPM_P1;HPM_P2
2022/09/30 00:01:34;;;;;;;1.35;0.60;;;16.90;99.90;;;;;;5033123;28;20076;-68
2022/09/30 00:04:01;;;;;;;2.95;0.85;;;17.00;99.90;;;;;;5032484;28;20532;-69
2022/09/30 00:06:28;;;;;;;3.92;1.20;;;17.00;99.90;;;;;;5033457;28;20666;-66
2022/09/30 00:08:55;;;;;;;2.85;1.25;;;17.00;99.90;;;;;;5032011;28;20043;-68
2022/09/30 00:11:29;;;;;;;3.90;1.10;;;16.90;99.90;;;;;;5032149;28;20053;-68
2022/09/30 00:13:57;;;;;;;4.22;1.83;;;17.00;99.90;;;;;;5032753;28;20021;-68
2022/09/30 00:16:24;;;;;;;3.10;1.20;;;17.00;99.90;;;;;;5032509;28;20488;-64
2022/09/30 00:18:50;;;;;;;3.97;1.23;;;17.00;99.90;;;;;;5032774;28;20056;-68
2022/09/30 00:21:16;;;;;;;4.18;1.48;;;16.90;99.90;;;;;;5032963;28;20451;-68
2022/09/30 00:23:43;;;;;;;4.65;2.30;;;16.80;99.90;;;;;;5032409;28;20032;-68
2022/09/30 00:26:15;;;;;;;3.42;1.98;;;16.80;99.90;;;;;;5032274;28;20037;-68
2022/09/30 00:28:43;;;;;;;7.55;2.47;;;16.70;99.90;;;;;;5032495;28;20025;-68
2022/09/30 00:31:13;;;;;;;3.80;2.10;;;16.70;99.90;;;;;;5032724;28;20029;-68
2022/09/30 00:33:40;;;;;;;4.03;2.00;;;16.70;99.90;;;;;;5032627;28;20036;-67
2022/09/30 00:36:05;;;;;;;6.43;2.17;;;16.70;99.90;;;;;;5032234;28;20124;-68
2022/09/30 00:38:32;;;;;;;3.22;1.65;;;16.70;99.90;;;;;;5032385;28;20434;-68
2022/09/30 00:40:59;;;;;;;5.00;1.77;;;16.70;99.90;;;;;;5032063;28;20503;-68
2022/09/30 00:43:42;;;;;;;4.15;1.92;;;16.70;99.90;;;;;;5032004;28;20545;-67
2022/09/30 00:46:19;;;;;;;4.38;1.20;;;16.70;99.90;;;;;;5031811;28;20080;-67
2022/09/30 00:48:49;;;;;;;3.58;1.35;;;16.70;99.90;;;;;;5031793;28;20033;-68
2022/09/30 00:51:16;;;;;;;4.63;2.00;;;16.80;99.90;;;;;;5018182;28;20551;-68
2022/09/30 00:53:51;;;;;;;4.38;2.08;;;16.70;99.90;;;;;;5032144;28;20084;-67
2022/09/30 00:56:23;;;;;;;7.18;2.38;;;16.60;99.90;;;;;;5035569;28;20431;-68
2022/09/30 00:58:59;;;;;;;5.03;2.22;;;16.60;99.90;;;;;;5035859;28;20026;-68
2022/09/30 01:01:26;;;;;;;4.75;2.10;;;16.60;99.90;;;;;;5035282;28;20022;-64
2022/09/30 01:04:02;;;;;;;3.55;1.85;;;16.70;99.90;;;;;;5036155;28;20084;-68
2022/09/30 01:06:27;;;;;;;3.28;1.25;;;16.60;99.90;;;;;;5036636;28;20052;-68
2022/09/30 01:08:54;;;;;;;3.72;1.42;;;16.60;99.90;;;;;;5035369;28;20030;-68
2022/09/30 01:11:20;;;;;;;4.43;1.30;;;16.60;99.90;;;;;;5034078;28;20061;-67
2022/09/30 01:13:52;;;;;;;1.17;0.85;;;16.60;99.90;;;;;;5033472;28;20469;-68
2022/09/30 01:16:42;;;;;;;2.35;1.10;;;16.70;99.90;;;;;;5033003;28;20447;-68
2022/09/30 01:19:31;;;;;;;1.10;1.00;;;16.70;99.90;;;;;;5032460;28;20112;-67
2022/09/30 01:22:09;;;;;;;5.50;1.33;;;16.70;99.90;;;;;;4979053;28;20050;-68
2022/09/30 01:24:50;;;;;;;2.67;1.60;;;16.70;99.90;;;;;;4968641;28;20113;-68
2022/09/30 01:27:28;;;;;;;2.30;1.35;;;16.70;99.90;;;;;;4974154;28;20078;-68
2022/09/30 01:30:03;;;;;;;1.95;1.25;;;16.70;99.90;;;;;;4966295;28;20686;-69
2022/09/30 01:32:47;;;;;;;2.38;1.10;;;16.70;99.90;;;;;;4979071;28;20071;-68
2022/09/30 01:35:36;;;;;;;2.30;1.05;;;16.70;99.90;;;;;;4976705;28;20031;-68
2022/09/30 01:38:12;;;;;;;1.98;1.60;;;16.70;99.90;;;;;;4975392;28;20047;-67
2022/09/30 01:40:56;;;;;;;2.05;1.60;;;16.70;99.90;;;;;;4979365;28;20046;-67
2022/09/30 01:43:30;;;;;;;3.47;2.05;;;16.70;99.90;;;;;;4976088;28;20026;-68
2022/09/30 01:46:11;;;;;;;3.72;1.30;;;16.70;99.90;;;;;;4983753;28;20394;-67
2022/09/30 01:48:48;;;;;;;2.70;1.75;;;16.70;99.90;;;;;;4983772;28;20026;-67
2022/09/30 01:51:36;;;;;;;4.65;1.65;;;16.70;99.90;;;;;;4979600;28;20126;-68
2022/09/30 01:54:17;;;;;;;2.47;1.67;;;16.70;99.90;;;;;;4975047;28;20026;-68
2022/09/30 01:56:48;;;;;;;3.60;1.45;;;16.70;99.90;;;;;;4964660;28;20062;-68
2022/09/30 01:59:31;;;;;;;2.17;1.73;;;16.60;99.90;;;;;;5009168;28;20423;-68
2022/09/30 02:02:18;;;;;;;3.85;2.05;;;16.60;99.90;;;;;;5026314;28;20026;-65
2022/09/30 02:05:02;;;;;;;4.25;2.03;;;16.60;99.90;;;;;;5032557;28;20028;-67
2022/09/30 02:07:37;;;;;;;4.57;2.40;;;16.50;99.90;;;;;;5021864;28;20503;-67
2022/09/30 02:10:18;;;;;;;2.88;2.00;;;16.40;99.90;;;;;;5029139;28;20080;-68
2022/09/30 02:12:54;;;;;;;4.43;2.13;;;16.40;99.90;;;;;;5029721;28;20491;-68
2022/09/30 02:15:29;;;;;;;6.28;2.75;;;16.40;99.90;;;;;;5029985;28;20064;-68
2022/09/30 02:18:03;;;;;;;5.32;2.22;;;16.30;99.90;;;;;;5029795;28;20049;-68
2022/09/30 02:20:34;;;;;;;3.28;1.85;;;16.30;99.90;;;;;;5030058;28;20014;-67
2022/09/30 02:23:11;;;;;;;5.38;2.30;;;16.40;99.90;;;;;;5016641;28;20036;-68
2022/09/30 02:25:54;;;;;;;5.93;2.22;;;16.40;99.90;;;;;;5034065;28;20109;-68
2022/09/30 02:28:27;;;;;;;5.00;2.58;;;16.40;99.90;;;;;;5034180;28;20063;-68
2022/09/30 02:30:58;;;;;;;6.93;3.22;;;16.50;99.90;;;;;;5034030;28;20028;-67
2022/09/30 02:33:53;;;;;;;8.00;2.90;;;16.50;99.90;;;;;;5034291;28;20061;-68
2022/09/30 02:36:29;;;;;;;5.05;2.97;;;16.50;99.90;;;;;;5032220;28;20049;-68
2022/09/30 02:39:04;;;;;;;5.25;2.35;;;16.40;99.90;;;;;;5033668;28;20037;-67
2022/09/30 02:41:37;;;;;;;7.50;3.13;;;16.30;99.90;;;;;;5034019;28;20140;-69
2022/09/30 02:44:03;;;;;;;;;;;16.20;99.90;;;;;;5034225;28;20035;-68
2022/09/30 02:47:03;;;;;;;12.38;5.60;;;15.90;99.90;;;;;;5033780;28;20395;-67
2022/09/30 02:49:38;;;;;;;14.82;6.13;;;16.00;99.90;;;;;;5033790;28;20076;-67
2022/09/30 02:52:32;;;;;;;18.20;6.07;;;16.00;99.90;;;;;;5033918;28;20021;-69
2022/09/30 02:55:25;;;;;;;10.60;6.10;;;15.90;99.90;;;;;;5033287;28;20139;-70
2022/09/30 02:58:01;;;;;;;16.00;6.35;;;15.90;99.90;;;;;;5031013;28;20034;-70
2022/09/30 03:00:28;;;;;;;8.55;4.18;;;15.90;99.90;;;;;;5015593;28;20185;-70
2022/09/30 03:03:04;;;;;;;9.07;3.50;;;15.70;99.90;;;;;;5032836;28;20116;-69
2022/09/30 03:05:30;;;;;;;8.98;4.47;;;15.70;99.90;;;;;;5033183;28;20369;-70
2022/09/30 03:07:56;;;;;;;6.68;3.22;;;15.70;99.90;;;;;;5046797;28;20049;-70
2022/09/30 03:10:23;;;;;;;7.38;4.10;;;15.60;99.90;;;;;;5032878;28;20471;-71
2022/09/30 03:13:10;;;;;;;6.18;3.88;;;15.60;99.90;;;;;;5031822;28;20049;-69
2022/09/30 03:16:04;;;;;;;10.68;5.72;;;15.60;99.90;;;;;;5024320;28;20075;-70
2022/09/30 03:18:44;;;;;;;12.02;4.95;;;15.70;99.90;;;;;;5038525;28;20034;-67
2022/09/30 03:21:38;;;;;;;7.28;4.10;;;15.70;99.90;;;;;;5032739;28;20026;-70
2022/09/30 03:24:14;;;;;;;6.05;3.75;;;15.70;99.90;;;;;;5032358;28;20437;-69
2022/09/30 03:26:53;;;;;;;11.30;3.72;;;15.70;99.90;;;;;;5032519;28;20104;-70
2022/09/30 03:29:45;;;;;;;7.10;3.03;;;15.70;99.90;;;;;;5032659;28;20033;-69
2022/09/30 03:32:33;;;;;;;8.40;3.07;;;15.80;99.90;;;;;;5032627;28;20029;-70
2022/09/30 03:35:09;;;;;;;5.28;2.97;;;15.70;99.90;;;;;;5032515;28;20270;-71
2022/09/30 03:37:44;;;;;;;14.57;7.50;;;15.70;99.90;;;;;;5032423;28;20037;-70
2022/09/30 03:40:29;;;;;;;24.10;13.10;;;15.70;99.90;;;;;;5032525;28;20025;-70
2022/09/30 03:43:04;;;;;;;24.70;15.38;;;15.80;99.90;;;;;;5024598;28;20029;-70
2022/09/30 03:45:32;;;;;;;23.88;14.05;;;15.80;99.90;;;;;;5032493;28;20025;-69
2022/09/30 03:48:03;;;;;;;19.60;8.60;;;15.80;99.90;;;;;;5032240;28;20080;-69
2022/09/30 03:50:30;;;;;;;9.02;4.70;;;15.90;99.90;;;;;;5032402;28;20018;-70
2022/09/30 03:52:57;;;;;;;19.27;10.90;;;15.90;99.90;;;;;;5032180;28;20009;-69
2022/09/30 03:55:24;;;;;;;44.55;30.77;;;15.90;99.90;;;;;;5032199;28;20025;-69
2022/09/30 03:57:51;;;;;;;35.17;24.67;;;16.00;99.90;;;;;;5031899;28;20033;-70
2022/09/30 04:00:17;;;;;;;27.40;18.15;;;16.00;99.90;;;;;;5031605;28;20026;-69
2022/09/30 04:02:45;;;;;;;29.13;17.95;;;16.00;99.90;;;;;;5031661;28;20025;-70
2022/09/30 04:05:11;;;;;;;21.42;10.80;;;16.00;99.90;;;;;;5031760;28;20033;-71
2022/09/30 04:07:37;;;;;;;21.08;10.65;;;16.10;99.90;;;;;;5044348;28;20128;-69
2022/09/30 04:10:04;;;;;;;18.77;12.35;;;16.10;99.90;;;;;;5035145;28;20104;-70
2022/09/30 04:12:30;;;;;;;28.27;19.63;;;16.10;99.90;;;;;;5031483;28;20672;-67
2022/09/30 04:14:56;;;;;;;22.77;16.15;;;16.10;99.90;;;;;;5039219;28;20044;-67
2022/09/30 04:17:21;;;;;;;25.27;16.30;;;16.10;99.90;;;;;;5047485;28;20500;-69
2022/09/30 04:19:48;;;;;;;19.48;10.63;;;16.10;99.90;;;;;;5045065;28;20488;-66
2022/09/30 04:22:14;;;;;;;10.43;6.05;;;16.00;99.90;;;;;;5031188;28;20057;-69
2022/09/30 04:24:40;;;;;;;10.85;5.95;;;16.00;99.90;;;;;;5028850;28;20384;-68
2022/09/30 04:27:06;;;;;;;17.25;9.10;;;16.00;99.90;;;;;;5031728;28;20018;-70
2022/09/30 04:29:32;;;;;;;11.63;5.22;;;16.10;99.90;;;;;;5030038;28;20104;-70
2022/09/30 04:31:58;;;;;;;5.65;3.28;;;16.10;99.90;;;;;;5031618;28;20035;-70
2022/09/30 04:34:24;;;;;;;5.35;3.22;;;16.00;99.90;;;;;;5031713;28;20079;-69
2022/09/30 04:36:50;;;;;;;7.53;3.65;;;16.10;99.90;;;;;;5030935;28;20037;-69
2022/09/30 04:39:16;;;;;;;6.88;3.67;;;16.20;99.90;;;;;;5031294;28;20125;-69
2022/09/30 04:41:42;;;;;;;11.18;6.45;;;16.10;99.90;;;;;;5031568;28;20029;-69
2022/09/30 04:44:07;;;;;;;14.00;6.28;;;15.90;99.90;;;;;;5031197;28;20028;-69
2022/09/30 04:46:35;;;;;;;10.15;5.78;;;15.90;99.90;;;;;;5031689;28;20030;-70
2022/09/30 04:49:05;;;;;;;13.50;5.93;;;15.90;99.90;;;;;;5032594;28;20490;-70
2022/09/30 04:51:31;;;;;;;13.07;5.30;;;16.00;99.90;;;;;;5041690;28;20691;-69
2022/09/30 04:53:57;;;;;;;12.80;4.43;;;15.90;99.90;;;;;;5030488;28;20026;-69
2022/09/30 04:56:25;;;;;;;8.23;4.68;;;16.00;99.90;;;;;;5030928;28;20028;-70
2022/09/30 04:58:51;;;;;;;8.07;4.18;;;16.00;99.90;;;;;;5024106;28;20028;-68
2022/09/30 05:01:17;;;;;;;8.80;4.38;;;16.00;99.90;;;;;;5030147;28;20057;-69
2022/09/30 05:03:44;;;;;;;10.10;3.53;;;16.00;99.90;;;;;;5042105;28;20029;-69
2022/09/30 05:06:10;;;;;;;8.40;4.15;;;16.00;99.90;;;;;;5034525;28;20049;-70
2022/09/30 05:08:36;;;;;;;7.53;3.35;;;16.10;99.90;;;;;;5045344;28;20029;-70
2022/09/30 05:11:08;;;;;;;8.30;3.03;;;16.10;99.90;;;;;;5031594;28;20495;-69
2022/09/30 05:13:39;;;;;;;9.52;3.83;;;16.10;99.90;;;;;;5031088;28;20029;-69
2022/09/30 05:16:06;;;;;;;7.00;3.13;;;16.20;99.90;;;;;;5013646;28;20412;-69
2022/09/30 05:18:33;;;;;;;8.30;3.35;;;16.10;99.90;;;;;;5044945;28;20028;-69
2022/09/30 05:20:59;;;;;;;6.28;2.70;;;16.10;99.90;;;;;;5030857;28;20029;-69
2022/09/30 05:23:27;;;;;;;5.35;3.25;;;16.10;99.90;;;;;;5031132;28;20026;-69
2022/09/30 05:25:53;;;;;;;6.68;3.38;;;16.00;99.90;;;;;;5028878;28;20018;-68
2022/09/30 05:28:19;;;;;;;8.63;3.17;;;16.00;99.90;;;;;;5026353;28;20092;-68
2022/09/30 05:30:45;;;;;;;5.53;2.50;;;16.10;99.90;;;;;;5029367;28;20044;-65
2022/09/30 05:33:12;;;;;;;4.88;2.70;;;16.10;99.90;;;;;;5039334;28;20028;-69
2022/09/30 05:35:40;;;;;;;3.85;2.33;;;16.10;99.90;;;;;;5035643;28;20076;-68
2022/09/30 05:38:06;;;;;;;5.60;3.35;;;16.10;99.90;;;;;;5031113;28;20029;-65
2022/09/30 05:40:32;;;;;;;5.15;2.60;;;16.10;99.90;;;;;;5032522;28;20104;-69
2022/09/30 05:42:58;;;;;;;5.90;3.55;;;16.30;99.90;;;;;;5033991;28;20113;-66
2022/09/30 05:45:25;;;;;;;4.82;3.17;;;17.50;99.90;;;;;;5046306;28;20115;-68
2022/09/30 05:47:52;;;;;;;5.72;2.92;;;18.10;99.90;;;;;;5036497;28;20570;-66
2022/09/30 05:50:19;;;;;;;5.15;2.25;;;18.60;99.90;;;;;;5034494;28;20403;-67
2022/09/30 05:52:45;;;;;;;3.72;2.60;;;18.50;99.90;;;;;;5034184;28;20080;-68
2022/09/30 05:55:11;;;;;;;14.25;3.30;;;18.20;99.90;;;;;;5034199;28;20021;-68
2022/09/30 05:57:37;;;;;;;8.68;2.85;;;17.60;99.90;;;;;;5034170;28;20033;-68
2022/09/30 06:00:05;;;;;;;3.55;2.50;;;17.60;99.90;;;;;;5045667;28;20056;-65
2022/09/30 06:02:37;;;;;;;6.85;2.45;;;17.60;99.90;;;;;;5033845;28;20496;-65
2022/09/30 06:05:05;;;;;;;3.35;2.20;;;17.50;99.90;;;;;;5031997;28;20112;-66
2022/09/30 06:07:32;;;;;;;3.45;2.47;;;17.10;99.90;;;;;;5042546;28;20053;-64
2022/09/30 06:09:58;;;;;;;4.25;2.08;;;17.40;99.90;;;;;;5036639;28;20363;-64
2022/09/30 06:12:26;;;;;;;4.80;3.05;;;17.30;99.90;;;;;;5034089;28;20036;-64
2022/09/30 06:14:52;;;;;;;4.40;2.53;;;17.50;99.90;;;;;;5033601;28;20025;-64
2022/09/30 06:17:18;;;;;;;5.10;2.40;;;17.70;99.90;;;;;;5033771;28;20026;-69
2022/09/30 06:19:44;;;;;;;5.40;3.03;;;17.90;99.90;;;;;;5034228;28;20494;-69
2022/09/30 06:22:10;;;;;;;5.38;2.55;;;18.10;99.90;;;;;;5033827;28;20025;-69
2022/09/30 06:24:36;;;;;;;7.65;2.33;;;18.10;99.90;;;;;;5034018;28;20468;-68
2022/09/30 06:27:01;;;;;;;9.50;2.90;;;17.90;99.90;;;;;;5033260;28;20041;-68
2022/09/30 06:29:27;;;;;;;3.10;2.03;;;18.10;99.90;;;;;;5033633;28;20060;-69
2022/09/30 06:31:53;;;;;;;6.97;2.85;;;18.00;99.90;;;;;;5033865;28;20084;-68
2022/09/30 06:34:19;;;;;;;4.20;2.60;;;17.80;99.90;;;;;;5033481;28;20021;-69
2022/09/30 06:36:44;;;;;;;3.75;2.13;;;18.00;99.90;;;;;;5033347;28;20033;-68
2022/09/30 06:39:10;;;;;;;3.67;2.30;;;18.00;99.90;;;;;;5033257;28;20064;-65
2022/09/30 06:41:42;;;;;;;4.32;2.45;;;18.10;99.90;;;;;;5033233;28;20025;-66
2022/09/30 06:44:08;;;;;;;3.45;2.33;;;18.10;99.90;;;;;;5033783;28;20100;-64
2022/09/30 06:46:34;;;;;;;7.35;2.20;;;18.10;99.90;;;;;;5040128;28;20041;-68
2022/09/30 06:49:00;;;;;;;6.80;2.40;;;18.20;99.90;;;;;;5033300;28;20021;-69
2022/09/30 06:51:28;;;;;;;4.88;2.25;;;18.00;99.90;;;;;;5032217;28;20040;-67
2022/09/30 06:53:55;;;;;;;7.70;3.97;;;18.20;99.90;;;;;;5028166;28;20025;-70
2022/09/30 06:56:21;;;;;;;4.68;2.25;;;18.60;99.90;;;;;;5033529;28;20025;-69
2022/09/30 06:58:47;;;;;;;4.75;2.00;;;18.80;99.90;;;;;;5033003;28;20029;-66
2022/09/30 07:01:14;;;;;;;2.90;1.60;;;19.10;99.90;;;;;;5032706;28;20017;-69
2022/09/30 07:03:44;;;;;;;2.72;1.58;;;19.20;99.90;;;;;;5032930;28;20060;-69
2022/09/30 07:06:12;;;;;;;4.15;2.10;;;18.80;99.90;;;;;;5031842;28;20041;-69
2022/09/30 07:08:38;;;;;;;5.38;1.60;;;19.10;99.90;;;;;;5038531;28;20025;-69
2022/09/30 07:11:16;;;;;;;8.75;2.22;;;19.10;99.90;;;;;;5032084;28;20486;-68
2022/09/30 07:13:44;;;;;;;4.00;1.80;;;19.30;99.90;;;;;;5032763;28;20029;-68
2022/09/30 07:16:12;;;;;;;4.22;1.60;;;19.60;99.90;;;;;;5032786;28;20021;-68
2022/09/30 07:18:41;;;;;;;1.40;1.30;;;19.50;99.90;;;;;;5032607;28;20013;-69
2022/09/30 07:21:07;;;;;;;3.47;1.27;;;19.80;99.90;;;;;;5032536;28;20032;-68
2022/09/30 07:23:33;;;;;;;2.38;1.30;;;20.00;99.90;;;;;;5032704;28;20362;-69
2022/09/30 07:26:03;;;;;;;3.40;1.48;;;19.90;99.90;;;;;;5032792;28;20029;-68
2022/09/30 07:28:32;;;;;;;3.92;1.98;;;19.80;99.90;;;;;;5015257;28;20033;-70
2022/09/30 07:31:00;;;;;;;7.55;2.47;;;19.70;99.90;;;;;;5022157;28;20029;-68
2022/09/30 07:33:30;;;;;;;2.80;1.60;;;19.70;99.90;;;;;;5021768;28;20022;-68
2022/09/30 07:35:57;;;;;;;4.22;1.88;;;20.00;99.90;;;;;;5011890;28;20112;-69
2022/09/30 07:38:27;;;;;;;6.07;1.92;;;20.00;99.90;;;;;;5032987;28;20376;-70
2022/09/30 07:41:26;;;;;;;3.97;1.88;;;20.00;99.90;;;;;;5030081;28;20480;-68
2022/09/30 07:43:55;;;;;;;8.32;2.15;;;20.10;99.90;;;;;;4952051;28;20043;-69
2022/09/30 07:46:28;;;;;;;6.28;2.22;;;20.00;99.90;;;;;;4952099;28;20359;-69
2022/09/30 07:48:58;;;;;;;10.13;2.17;;;19.60;99.90;;;;;;4951427;28;20494;-68
2022/09/30 07:51:31;;;;;;;8.18;2.25;;;19.60;99.90;;;;;;4960167;28;20055;-69
2022/09/30 07:54:00;;;;;;;2.75;2.00;;;19.80;99.90;;;;;;4957003;28;20086;-69
2022/09/30 07:56:27;;;;;;;5.63;3.00;;;19.70;99.90;;;;;;4952441;28;20107;-68
2022/09/30 07:58:55;;;;;;;5.40;2.70;;;19.60;99.90;;;;;;4952032;29;20572;-68
2022/09/30 08:01:22;;;;;;;6.95;2.03;;;19.90;99.90;;;;;;4946851;28;20039;-69
2022/09/30 08:03:53;;;;;;;8.38;3.40;;;20.00;99.90;;;;;;4946762;28;20450;-68
2022/09/30 08:06:20;;;;;;;5.50;3.03;;;20.20;99.90;;;;;;4950505;28;20518;-69
2022/09/30 08:08:46;;;;;;;11.27;3.83;;;20.20;99.90;;;;;;4951891;28;20031;-70
2022/09/30 08:11:13;;;;;;;5.78;3.58;;;20.10;99.90;;;;;;4952058;28;20027;-69
2022/09/30 08:13:40;;;;;;;8.13;5.07;;;19.90;99.90;;;;;;4952223;28;20066;-69
2022/09/30 08:16:06;;;;;;;7.20;4.28;;;20.00;99.90;;;;;;4952034;28;20628;-68
2022/09/30 08:18:32;;;;;;;8.70;4.25;;;20.00;99.90;;;;;;4950401;28;20027;-70
2022/09/30 08:21:05;;;;;;;5.72;3.75;;;19.70;99.90;;;;;;5013846;28;20107;-69
2022/09/30 08:23:34;;;;;;;7.38;4.25;;;19.90;99.90;;;;;;5030249;28;20092;-68
2022/09/30 08:26:05;;;;;;;5.60;3.30;;;19.90;99.90;;;;;;5032463;28;20021;-69
2022/09/30 08:28:31;;;;;;;6.28;3.58;;;20.10;99.90;;;;;;5029629;28;20037;-68
2022/09/30 08:31:13;;;;;;;7.00;3.15;;;19.90;99.90;;;;;;5030937;28;20014;-67
2022/09/30 08:33:40;;;;;;;5.25;3.70;;;20.10;99.90;;;;;;5031893;28;20033;-69
2022/09/30 08:36:09;;;;;;;5.13;3.53;;;20.10;99.90;;;;;;5014485;28;20480;-69
2022/09/30 08:38:35;;;;;;;6.30;3.72;;;20.20;99.90;;;;;;5032173;28;20036;-68
2022/09/30 08:41:12;;;;;;;9.65;4.50;;;20.30;99.90;;;;;;5045229;28;20368;-67
2022/09/30 08:44:17;;;;;;;7.45;4.07;;;20.30;99.90;;;;;;5043988;28;20075;-68
2022/09/30 08:47:00;;;;;;;10.40;5.07;;;20.40;99.90;;;;;;5033033;28;20100;-69
2022/09/30 08:50:02;;;;;;;9.27;4.82;;;20.60;99.90;;;;;;5033811;28;20396;-68
2022/09/30 08:52:37;;;;;;;13.90;5.63;;;20.70;99.90;;;;;;5023672;28;20535;-69
2022/09/30 08:55:05;;;;;;;12.90;5.10;;;20.90;99.90;;;;;;5029597;28;20057;-68
2022/09/30 08:57:39;;;;;;;12.32;5.07;;;20.80;99.90;;;;;;5030433;28;20680;-68
2022/09/30 09:00:09;;;;;;;9.23;4.97;;;20.90;99.90;;;;;;5030266;28;20025;-66
2022/09/30 09:02:47;;;;;;;7.65;4.30;;;21.00;99.90;;;;;;5030231;28;20033;-68
2022/09/30 09:05:31;;;;;;;13.05;3.88;;;21.20;99.90;;;;;;5027006;28;20364;-69
2022/09/30 09:07:57;;;;;;;7.07;3.40;;;21.40;99.90;;;;;;5033556;28;20108;-69
2022/09/30 09:10:32;;;;;;;9.77;2.70;;;21.40;99.90;;;;;;5030397;28;20487;-68
2022/09/30 09:13:04;;;;;;;4.13;2.42;;;21.50;99.90;;;;;;5030007;28;20036;-66
2022/09/30 09:16:07;;;;;;;10.40;3.67;;;21.60;99.90;;;;;;5032468;28;20057;-71
2022/09/30 09:19:06;;;;;;;7.03;3.88;;;21.60;99.90;;;;;;5034079;28;20044;-68
2022/09/30 09:22:00;;;;;;;6.65;2.35;;;21.50;99.90;;;;;;5031837;28;20546;-69
2022/09/30 09:24:43;;;;;;;8.20;3.35;;;21.50;99.90;;;;;;5035693;28;20058;-70
2022/09/30 09:27:31;;;;;;;8.10;3.45;;;21.60;99.90;;;;;;5035748;28;20030;-68
2022/09/30 09:30:07;;;;;;;6.60;3.05;;;21.60;99.90;;;;;;5016947;28;20508;-69
2022/09/30 09:32:35;;;;;;;8.43;3.30;;;20.90;99.90;;;;;;5035322;28;20017;-68
2022/09/30 09:35:14;;;;;;;10.93;4.22;;;21.00;99.90;;;;;;5035075;28;20026;-67
2022/09/30 09:38:24;;;;;;;7.95;3.25;;;21.40;99.90;;;;;;5035521;28;20079;-69
2022/09/30 09:41:13;;;;;;;10.73;3.92;;;21.50;99.90;;;;;;5034818;28;20504;-67
2022/09/30 09:44:08;;;;;;;8.02;3.72;;;21.60;99.90;;;;;;5016883;28;20040;-69
2022/09/30 09:47:03;;;;;;;15.40;5.65;;;21.80;99.90;;;;;;5013116;28;20108;-67
2022/09/30 09:49:37;;;;;;;8.93;3.85;;;21.80;99.90;;;;;;5012829;28;20026;-68
2022/09/30 09:52:11;;;;;;;13.40;4.78;;;21.90;99.90;;;;;;5013343;28;20046;-70
2022/09/30 09:54:46;;;;;;;15.00;4.57;;;22.00;99.90;;;;;;5012485;28;20413;-69
2022/09/30 09:57:17;;;;;;;15.07;4.90;;;22.20;99.90;;;;;;5012803;28;20185;-69
2022/09/30 10:03:00;;;;;;;8.02;3.25;;;22.40;99.90;;;;;;5012894;28;20275;-69
2022/09/30 10:05:29;;;;;;;6.50;2.72;;;22.50;99.90;;;;;;5012466;28;20041;-69
2022/09/30 10:08:30;;;;;;;4.95;3.17;;;22.60;99.90;;;;;;5010687;28;20069;-68
2022/09/30 10:11:02;;;;;;;7.53;2.80;;;22.60;99.90;;;;;;4973804;28;20046;-67
2022/09/30 10:13:41;;;;;;;7.28;2.60;;;22.70;99.90;;;;;;4957417;28;20042;-68
2022/09/30 10:16:30;;;;;;;6.95;3.10;;;22.80;99.90;;;;;;4973187;28;20082;-69
2022/09/30 10:18:57;;;;;;;11.52;2.80;;;22.80;99.90;;;;;;4973763;28;20031;-69
2022/09/30 10:21:26;;;;;;;4.88;2.80;;;22.80;99.90;;;;;;4973560;28;20038;-68
2022/09/30 10:23:52;;;;;;;11.07;4.15;;;22.90;99.90;;;;;;4973140;28;20046;-68
2022/09/30 10:26:21;;;;;;;7.22;3.50;;;23.00;99.90;;;;;;4972124;28;20039;-68
2022/09/30 10:28:58;;;;;;;5.90;3.22;;;22.90;99.90;;;;;;4972449;28;20125;-69
2022/09/30 10:31:26;;;;;;;5.97;3.15;;;23.00;99.90;;;;;;4972625;28;20114;-68
2022/09/30 10:34:07;;;;;;;10.43;4.05;;;22.90;99.90;;;;;;4971978;28;20035;-68
2022/09/30 10:36:35;;;;;;;11.18;4.90;;;22.70;99.90;;;;;;4972636;28;20489;-69
2022/09/30 10:39:25;;;;;;;8.70;3.53;;;22.90;99.90;;;;;;4972136;28;20093;-68
2022/09/30 10:42:07;;;;;;;5.13;2.72;;;23.10;99.90;;;;;;4972450;28;20038;-69
2022/09/30 10:44:42;;;;;;;9.07;3.60;;;23.30;99.90;;;;;;4972530;28;20113;-69
2022/09/30 10:47:12;;;;;;;5.55;3.30;;;23.40;99.90;;;;;;5019586;28;20038;-68
2022/09/30 10:49:48;;;;;;;9.73;3.53;;;23.50;99.90;;;;;;5033800;28;20113;-69
2022/09/30 10:52:29;;;;;;;11.88;3.45;;;23.50;99.90;;;;;;5033570;28;20029;-69
2022/09/30 10:55:06;;;;;;;8.85;4.00;;;23.50;99.90;;;;;;5033631;28;20057;-69
2022/09/30 10:57:35;;;;;;;10.73;4.68;;;23.40;99.90;;;;;;5032945;28;20040;-69
2022/09/30 11:00:05;;;;;;;11.48;5.38;;;23.30;99.90;;;;;;5033720;28;20021;-68
2022/09/30 11:02:48;;;;;;;12.98;4.43;;;23.50;99.90;;;;;;5033175;28;20037;-68
2022/09/30 11:05:18;;;;;;;8.13;3.22;;;23.60;99.90;;;;;;5031762;28;20372;-67
2022/09/30 11:07:55;;;;;;;11.93;3.63;;;23.80;99.90;;;;;;5044366;28;20407;-68
2022/09/30 11:10:32;;;;;;;7.50;3.38;;;23.90;99.90;;;;;;5032783;28;20400;-69
2022/09/30 11:13:15;;;;;;;12.25;4.28;;;23.90;99.90;;;;;;5032814;28;20030;-68
2022/09/30 11:16:16;;;;;;;9.38;4.35;;;24.00;99.90;;;;;;5015807;28;20021;-69
2022/09/30 11:19:00;;;;;;;8.18;3.65;;;24.00;99.90;;;;;;4951315;28;20038;-68
2022/09/30 11:21:37;;;;;;;6.78;3.03;;;24.00;99.90;;;;;;4952252;28;20054;-69
2022/09/30 11:24:24;;;;;;;14.35;3.65;;;24.00;99.90;;;;;;4952679;28;20066;-69
2022/09/30 11:27:15;;;;;;;9.32;4.32;;;24.10;99.90;;;;;;4952740;28;20573;-69
2022/09/30 11:29:57;;;;;;;10.25;4.45;;;24.90;99.90;;;;;;4952479;28;20066;-68
2022/09/30 11:32:31;;;;;;;6.07;2.92;;;;;;;;;;4952780;28;20114;-69
2022/09/30 11:35:31;;;;;;;9.95;2.53;;;24.00;99.90;;;;;;4952666;28;20492;-69
2022/09/30 11:38:04;;;;;;;6.53;2.72;;;24.30;99.90;;;;;;4952483;28;20090;-68
2022/09/30 11:40:33;;;;;;;6.72;2.97;;;24.30;99.90;;;;;;4952696;28;20043;-69
2022/09/30 11:43:36;;;;;;;7.28;3.08;;;24.30;99.90;;;;;;4952853;28;20031;-69
2022/09/30 11:46:16;;;;;;;11.73;3.20;;;24.30;99.90;;;;;;4949433;28;20066;-70
2022/09/30 11:48:48;;;;;;;9.77;2.75;;;24.30;99.90;;;;;;4951418;28;20031;-69
2022/09/30 11:51:44;;;;;;;4.15;2.08;;;24.30;99.90;;;;;;4952267;28;20031;-69
2022/09/30 11:54:40;;;;;;;2.72;2.00;;;24.40;99.90;;;;;;5032384;28;20412;-69
2022/09/30 11:57:16;;;;;;;8.43;2.30;;;24.40;99.90;;;;;;5032553;28;20092;-69
2022/09/30 11:59:52;;;;;;;4.25;2.38;;;24.50;99.90;;;;;;5032426;28;20067;-69
2022/09/30 12:02:39;;;;;;;4.40;2.13;;;24.50;99.90;;;;;;5032910;28;20040;-69
2022/09/30 12:05:15;;;;;;;5.57;2.92;;;24.60;99.90;;;;;;5032698;28;20036;-68
2022/09/30 12:08:03;;;;;;;4.45;2.65;;;24.60;99.90;;;;;;5044267;28;20399;-70
2022/09/30 12:10:37;;;;;;;5.38;2.92;;;24.80;99.90;;;;;;5032658;28;20028;-68
2022/09/30 12:13:37;;;;;;;4.88;2.75;;;25.00;99.90;;;;;;5032238;28;20029;-67
2022/09/30 12:16:10;;;;;;;6.22;2.55;;;25.20;99.90;;;;;;5028560;28;20068;-68
2022/09/30 12:18:40;;;;;;;3.58;2.10;;;25.40;99.90;;;;;;5032229;28;20313;-69
2022/09/30 12:21:31;;;;;;;4.90;2.70;;;25.50;99.90;;;;;;5032468;28;20021;-69
2022/09/30 12:24:23;;;;;;;4.70;2.22;;;25.60;99.90;;;;;;5031867;28;20026;-68
2022/09/30 12:26:50;;;;;;;8.10;2.00;;;25.60;99.90;;;;;;5032047;28;20492;-69
2022/09/30 12:32:27;;;;;;;3.28;1.50;;;25.90;99.90;;;;;;5032307;28;20475;-69
2022/09/30 12:35:00;;;;;;;2.63;1.30;;;25.90;99.90;;;;;;5030870;28;20033;-69
2022/09/30 12:37:27;;;;;;;3.15;1.40;;;;;;;;;;5032068;28;20069;-69
2022/09/30 12:40:13;;;;;;;5.97;1.80;;;25.70;99.90;;;;;;5025832;28;20531;-67
2022/09/30 12:42:52;;;;;;;3.63;1.55;;;;;;;;;;5027887;28;20032;-69
2022/09/30 12:45:36;;;;;;;4.40;1.80;;;26.00;99.90;;;;;;5025270;28;20033;-69
2022/09/30 12:48:10;;;;;;;2.63;1.65;;;25.90;99.90;;;;;;5009970;28;20403;-69
2022/09/30 12:50:49;;;;;;;5.80;2.08;;;25.90;99.90;;;;;;5032043;28;20052;-69
2022/09/30 12:53:19;;;;;;;10.80;2.92;;;27.10;99.90;;;;;;5029812;28;20373;-68
2022/09/30 12:55:46;;;;;;;4.28;2.40;;;25.80;99.90;;;;;;5033578;28;20455;-68
2022/09/30 12:58:25;;;;;;;8.18;2.38;;;25.60;99.90;;;;;;5024666;28;20484;-67
2022/09/30 13:01:11;;;;;;;6.28;2.05;;;24.70;99.90;;;;;;5031927;28;20167;-70
2022/09/30 13:03:52;;;;;;;4.82;2.70;;;25.30;99.90;;;;;;5033778;28;20040;-69
2022/09/30 13:06:20;;;;;;;6.75;3.25;;;25.40;99.90;;;;;;5030706;28;20108;-69
2022/09/30 13:09:05;;;;;;;7.28;1.90;;;25.30;99.90;;;;;;5034228;28;20037;-71
2022/09/30 13:11:53;;;;;;;6.82;2.78;;;25.50;99.90;;;;;;5035095;28;20364;-69
2022/09/30 13:14:36;;;;;;;7.53;2.33;;;25.60;99.90;;;;;;5034475;28;20033;-69
2022/09/30 13:17:09;;;;;;;1.95;1.63;;;25.60;99.90;;;;;;5034475;28;20037;-70
2022/09/30 13:19:44;;;;;;;5.57;2.33;;;25.30;99.90;;;;;;5032487;28;20122;-69
2022/09/30 13:22:19;;;;;;;2.28;1.35;;;25.40;99.90;;;;;;5033563;28;20029;-69
2022/09/30 13:25:01;;;;;;;8.13;2.28;;;25.40;99.90;;;;;;5034223;28;20029;-69
2022/09/30 13:27:52;;;;;;;3.85;2.33;;;25.90;99.90;;;;;;5034056;28;20021;-69